createdAt,value
2022-09-09T00:02:22.444Z,19.50
2022-09-09T00:05:47.165Z,19.53
2022-09-09T00:08:48.533Z,19.53
2022-09-09T00:11:31.759Z,19.43
2022-09-09T00:14:07.247Z,19.45
2022-09-09T00:16:43.486Z,19.34
2022-09-09T00:19:34.673Z,19.32
2022-09-09T00:22:24.968Z,19.38
2022-09-09T00:24:57.569Z,19.22
2022-09-09T00:27:50.921Z,19.16
2022-09-09T00:30:26.823Z,19.08
2022-09-09T00:33:02.763Z,19.08
2022-09-09T00:35:38.489Z,18.97
2022-09-09T00:38:35.322Z,19.16
2022-09-09T00:41:18.903Z,19.11
2022-09-09T00:44:36.329Z,19.13
2022-09-09T00:47:46.416Z,19.11
2022-09-09T00:50:56.777Z,19.02
2022-09-09T00:54:30.215Z,18.99
2022-09-09T00:57:32.895Z,18.83
2022-09-09T01:00:25.753Z,18.81
2022-09-09T01:03:52.797Z,18.64
2022-09-09T01:06:39.821Z,18.58
2022-09-09T01:09:34.263Z,18.67
2022-09-09T01:12:44.979Z,18.66
2022-09-09T01:15:24.156Z,18.36
2022-09-09T01:18:15.571Z,18.46
2022-09-09T01:21:07.694Z,18.44
2022-09-09T01:23:50.330Z,18.53
2022-09-09T01:26:45.090Z,18.50
2022-09-09T01:29:20.365Z,18.27
2022-09-09T01:32:41.398Z,18.18
2022-09-09T01:35:41.031Z,17.99
2022-09-09T01:38:09.046Z,17.88
2022-09-09T01:40:40.766Z,17.93
2022-09-09T01:43:09.360Z,17.81
2022-09-09T01:45:41.141Z,17.96
2022-09-09T01:48:10.669Z,17.75
2022-09-09T01:50:40.125Z,18.13
2022-09-09T01:53:09.925Z,18.16
2022-09-09T01:55:53.196Z,18.27
2022-09-09T01:59:00.589Z,17.89
2022-09-09T02:02:07.773Z,17.71
2022-09-09T02:04:51.509Z,17.71
2022-09-09T02:07:49.526Z,17.72
2022-09-09T02:11:06.911Z,17.65
2022-09-09T02:13:38.919Z,17.58
2022-09-09T02:16:36.331Z,17.61
2022-09-09T02:19:26.504Z,17.51
2022-09-09T02:22:00.864Z,17.51
2022-09-09T02:24:37.419Z,17.58
2022-09-09T02:27:10.359Z,17.62
2022-09-09T02:29:44.175Z,17.40
2022-09-09T02:32:24.636Z,17.44
2022-09-09T02:35:06.919Z,17.52
2022-09-09T02:37:41.080Z,17.20
2022-09-09T02:40:12.794Z,17.20
2022-09-09T02:42:46.451Z,17.26
2022-09-09T02:45:29.595Z,17.38
2022-09-09T02:48:17.951Z,17.27
2022-09-09T02:51:10.091Z,17.19
2022-09-09T02:54:37.334Z,17.27
2022-09-09T02:57:15.594Z,17.21
2022-09-09T02:59:46.685Z,17.13
2022-09-09T03:02:14.906Z,17.00
2022-09-09T03:04:45.630Z,17.00
2022-09-09T03:07:15.041Z,17.06
2022-09-09T03:09:46.805Z,17.10
2022-09-09T03:12:14.770Z,17.14
2022-09-09T03:14:42.419Z,17.17
2022-09-09T03:17:11.787Z,17.11
2022-09-09T03:19:41.263Z,16.92
2022-09-09T03:22:12.519Z,16.98
2022-09-09T03:24:40.206Z,16.86
2022-09-09T03:27:08.172Z,17.01
2022-09-09T03:29:35.814Z,17.09
2022-09-09T03:32:07.131Z,17.29
2022-09-09T03:34:36.573Z,17.44
2022-09-09T03:37:06.787Z,17.26
2022-09-09T03:39:36.247Z,17.07
2022-09-09T03:42:06.804Z,17.06
2022-09-09T03:44:36.259Z,17.06
2022-09-09T03:47:03.991Z,17.08
2022-09-09T03:49:31.642Z,16.96
2022-09-09T03:52:00.147Z,16.84
2022-09-09T03:54:28.395Z,16.87
2022-09-09T03:56:56.085Z,17.06
2022-09-09T03:59:24.186Z,17.08
2022-09-09T04:01:52.447Z,17.04
2022-09-09T04:04:21.184Z,17.01
2022-09-09T04:06:52.371Z,17.09
2022-09-09T04:09:20.030Z,16.89
2022-09-09T04:11:47.614Z,16.97
2022-09-09T04:14:15.240Z,16.94
2022-09-09T04:16:45.736Z,17.10
2022-09-09T04:19:15.402Z,16.80
2022-09-09T04:21:43.750Z,16.92
2022-09-09T04:24:11.396Z,16.96
2022-09-09T04:26:39.456Z,17.05
2022-09-09T04:29:08.778Z,16.81
2022-09-09T04:31:36.741Z,16.79
2022-09-09T04:34:06.433Z,16.67
2022-09-09T04:36:34.461Z,16.65
2022-09-09T04:39:02.659Z,16.59
2022-09-09T04:41:32.525Z,16.76
2022-09-09T04:44:01.868Z,16.72
2022-09-09T04:46:31.292Z,16.69
2022-09-09T04:49:01.003Z,16.79
2022-09-09T04:51:32.349Z,16.85
2022-09-09T04:54:00.244Z,16.94
2022-09-09T04:56:29.637Z,16.89
2022-09-09T04:58:59.092Z,16.88
2022-09-09T05:01:28.245Z,16.99
2022-09-09T05:03:56.032Z,16.93
2022-09-09T05:06:24.287Z,17.01
2022-09-09T05:08:55.438Z,17.09
2022-09-09T05:11:31.043Z,17.02
2022-09-09T05:13:58.743Z,16.95
2022-09-09T05:16:26.454Z,17.13
2022-09-09T05:18:54.591Z,17.12
2022-09-09T05:21:27.486Z,17.12
2022-09-09T05:23:55.112Z,16.94
2022-09-09T05:26:25.166Z,17.08
2022-09-09T05:28:53.197Z,17.19
2022-09-09T05:31:21.418Z,17.12
2022-09-09T05:33:53.095Z,17.09
2022-09-09T05:36:23.710Z,17.29
2022-09-09T05:38:52.186Z,17.28
2022-09-09T05:41:21.047Z,17.32
2022-09-09T05:43:49.934Z,17.32
2022-09-09T05:46:25.091Z,17.24
2022-09-09T05:48:54.605Z,17.36
2022-09-09T05:51:27.671Z,17.34
2022-09-09T05:54:01.482Z,17.57
2022-09-09T05:56:31.280Z,18.59
2022-09-09T05:59:01.264Z,18.31
2022-09-09T06:01:37.489Z,18.43
2022-09-09T06:04:07.291Z,18.93
2022-09-09T06:06:40.592Z,18.93
2022-09-09T06:09:11.496Z,19.82
2022-09-09T06:11:42.262Z,20.82
2022-09-09T06:14:11.542Z,22.57
2022-09-09T06:16:40.193Z,23.40
2022-09-09T06:19:09.711Z,21.61
2022-09-09T06:21:39.836Z,21.41
2022-09-09T06:24:08.835Z,22.85
2022-09-09T06:26:44.247Z,21.56
2022-09-09T06:29:14.011Z,23.26
2022-09-09T06:31:43.470Z,24.32
2022-09-09T06:34:12.899Z,26.09
2022-09-09T06:36:42.350Z,26.28
2022-09-09T06:39:14.722Z,23.68
2022-09-09T06:41:44.785Z,21.72
2022-09-09T06:44:14.189Z,21.26
2022-09-09T06:46:42.774Z,20.67
2022-09-09T06:49:12.276Z,20.72
2022-09-09T06:51:44.828Z,20.76
2022-09-09T06:54:14.882Z,20.58
2022-09-09T06:56:46.258Z,20.62
2022-09-09T06:59:15.698Z,20.38
2022-09-09T07:01:45.988Z,20.35
2022-09-09T07:04:15.124Z,20.45
2022-09-09T07:06:47.417Z,20.60
2022-09-09T07:09:17.738Z,20.78
2022-09-09T07:11:53.903Z,21.11
2022-09-09T07:14:23.795Z,21.02
2022-09-09T07:16:59.354Z,21.01
2022-09-09T07:19:28.324Z,20.92
2022-09-09T07:21:56.659Z,20.96
2022-09-09T07:24:25.406Z,20.71
2022-09-09T07:26:53.887Z,20.86
2022-09-09T07:29:22.251Z,21.19
2022-09-09T07:31:50.678Z,21.32
2022-09-09T07:34:20.160Z,21.74
2022-09-09T07:36:49.985Z,22.01
2022-09-09T07:39:19.470Z,22.21
2022-09-09T07:41:50.636Z,22.27
2022-09-09T07:44:26.211Z,22.43
2022-09-09T07:46:57.646Z,21.81
2022-09-09T07:49:32.124Z,21.32
2022-09-09T07:52:02.938Z,21.54
2022-09-09T07:54:33.899Z,22.07
2022-09-09T07:57:04.940Z,22.90
2022-09-09T07:59:34.749Z,22.92
2022-09-09T08:02:04.293Z,22.76
2022-09-09T08:04:33.700Z,23.00
2022-09-09T08:07:04.558Z,23.36
2022-09-09T08:09:34.791Z,22.92
2022-09-09T08:12:04.799Z,23.06
2022-09-09T08:14:34.310Z,22.94
2022-09-09T08:17:04.050Z,23.50
2022-09-09T08:19:37.164Z,23.45
2022-09-09T08:22:05.567Z,23.71
2022-09-09T08:24:35.290Z,23.49
2022-09-09T08:27:04.963Z,23.77
2022-09-09T08:29:34.890Z,23.72
2022-09-09T08:32:04.588Z,23.90
2022-09-09T08:34:34.918Z,23.62
2022-09-09T08:37:04.541Z,23.64
2022-09-09T08:39:35.115Z,23.92
2022-09-09T08:42:22.809Z,23.82
2022-09-09T08:45:40.391Z,24.12
2022-09-09T08:49:24.931Z,24.26
2022-09-09T08:51:58.376Z,24.47
2022-09-09T08:54:51.120Z,23.93
2022-09-09T08:57:28.014Z,24.14
2022-09-09T08:59:58.776Z,24.41
2022-09-09T09:03:16.496Z,24.12
2022-09-09T09:06:16.526Z,24.59
2022-09-09T09:09:22.738Z,24.16
2022-09-09T09:12:02.481Z,24.33
2022-09-09T09:14:36.475Z,24.85
2022-09-09T09:17:14.310Z,24.92
2022-09-09T09:19:45.230Z,24.88
2022-09-09T09:22:53.106Z,24.64
2022-09-09T09:25:32.090Z,24.68
2022-09-09T09:28:26.885Z,24.71
2022-09-09T09:31:06.244Z,24.40
2022-09-09T09:33:54.319Z,25.07
2022-09-09T09:36:43.549Z,24.73
2022-09-09T09:42:23.945Z,25.25
2022-09-09T09:44:55.257Z,25.57
2022-09-09T09:47:25.248Z,25.26
2022-09-09T09:50:00.622Z,25.08
2022-09-09T09:52:33.367Z,25.04
2022-09-09T09:55:08.535Z,25.35
2022-09-09T09:57:39.294Z,25.29
2022-09-09T10:00:21.943Z,24.92
2022-09-09T10:02:53.804Z,25.61
2022-09-09T10:05:30.596Z,25.51
2022-09-09T10:08:14.507Z,25.45
2022-09-09T10:11:08.211Z,25.44
2022-09-09T10:14:13.686Z,25.61
2022-09-09T10:17:15.872Z,25.56
2022-09-09T10:20:27.621Z,26.32
2022-09-09T10:23:45.310Z,25.70
2022-09-09T10:26:49.182Z,25.98
2022-09-09T10:30:05.597Z,26.04
2022-09-09T10:36:24.457Z,26.35
2022-09-09T10:39:40.612Z,26.02
2022-09-09T10:42:17.862Z,25.88
2022-09-09T10:45:22.934Z,26.37
2022-09-09T10:48:27.987Z,25.76
2022-09-09T10:51:34.987Z,26.12
2022-09-09T10:54:54.879Z,25.96
2022-09-09T10:57:53.285Z,26.17
2022-09-09T11:00:47.524Z,26.46
2022-09-09T11:03:27.752Z,26.74
2022-09-09T11:06:20.764Z,26.80
2022-09-09T11:08:53.784Z,26.49
2022-09-09T11:11:59.475Z,26.84
2022-09-09T11:14:53.004Z,26.88
2022-09-09T11:17:48.094Z,27.11
2022-09-09T11:20:17.576Z,27.43
2022-09-09T11:23:06.183Z,27.00
2022-09-09T11:25:45.354Z,26.79
2022-09-09T11:29:15.879Z,26.54
2022-09-09T11:32:18.865Z,26.47
2022-09-09T11:35:16.133Z,26.59
2022-09-09T11:38:12.413Z,26.97
2022-09-09T11:40:42.505Z,27.18
2022-09-09T11:43:25.652Z,26.95
2022-09-09T11:46:03.860Z,27.08
2022-09-09T11:48:40.757Z,27.42
2022-09-09T11:51:28.003Z,27.35
2022-09-09T11:54:30.565Z,26.96
2022-09-09T11:57:01.175Z,27.32
2022-09-09T11:59:33.785Z,26.89
2022-09-09T12:02:25.856Z,26.66
2022-09-09T12:05:11.134Z,27.19
2022-09-09T12:07:48.500Z,26.83
2022-09-09T12:10:37.478Z,26.85
2022-09-09T12:13:24.377Z,26.52
2022-09-09T12:16:00.241Z,26.38
2022-09-09T12:18:41.017Z,26.35
2022-09-09T12:21:41.775Z,26.44
2022-09-09T12:24:29.664Z,26.33
2022-09-09T12:27:20.805Z,25.96
2022-09-09T12:30:22.730Z,26.22
2022-09-09T12:33:14.357Z,26.28
2022-09-09T12:35:52.655Z,26.33
2022-09-09T12:38:37.779Z,26.45
2022-09-09T12:41:07.275Z,26.25
2022-09-09T12:43:37.521Z,26.31
2022-09-09T12:46:24.044Z,26.10
2022-09-09T12:48:52.462Z,26.08
2022-09-09T12:51:33.877Z,26.00
2022-09-09T12:54:04.443Z,26.12
2022-09-09T12:56:35.252Z,26.28
2022-09-09T12:59:04.713Z,26.32
2022-09-09T13:01:36.976Z,26.09
2022-09-09T13:04:26.016Z,26.26
2022-09-09T13:06:54.660Z,26.60
2022-09-09T13:09:24.248Z,26.88
2022-09-09T13:12:01.591Z,25.99
2022-09-09T13:14:38.456Z,25.75
2022-09-09T13:17:23.054Z,26.56
2022-09-09T13:19:54.278Z,26.79
2022-09-09T13:22:42.359Z,26.59
2022-09-09T13:25:12.571Z,26.52
2022-09-09T13:28:03.551Z,26.37
2022-09-09T13:30:39.112Z,26.67
2022-09-09T13:33:15.613Z,26.80
2022-09-09T13:36:08.094Z,26.77
2022-09-09T13:38:56.604Z,26.62
2022-09-09T13:41:37.886Z,26.57
2022-09-09T13:44:07.705Z,26.84
2022-09-09T13:46:41.630Z,26.56
2022-09-09T13:49:13.652Z,26.78
2022-09-09T13:51:51.788Z,26.79
2022-09-09T13:54:23.976Z,27.01
2022-09-09T13:56:54.694Z,27.00
2022-09-09T13:59:30.646Z,26.78
2022-09-09T14:02:08.541Z,26.64
2022-09-09T14:04:38.006Z,26.83
2022-09-09T14:07:07.371Z,27.29
2022-09-09T14:09:37.323Z,27.09
2022-09-09T14:12:10.257Z,27.28
2022-09-09T14:14:40.352Z,26.86
2022-09-09T14:17:10.864Z,26.93
2022-09-09T14:19:40.294Z,27.04
2022-09-09T14:22:09.673Z,26.75
2022-09-09T14:24:41.573Z,26.69
2022-09-09T14:27:11.361Z,26.24
2022-09-09T14:29:40.700Z,26.65
2022-09-09T14:32:12.574Z,26.34
2022-09-09T14:34:42.294Z,26.37
2022-09-09T14:37:12.051Z,26.29
2022-09-09T14:39:41.511Z,26.19
2022-09-09T14:42:12.250Z,26.12
2022-09-09T14:44:41.900Z,26.25
2022-09-09T14:47:11.321Z,26.58
2022-09-09T14:49:42.660Z,26.58
2022-09-09T14:52:14.577Z,26.44
2022-09-09T14:54:44.032Z,26.04
2022-09-09T14:57:13.530Z,26.27
2022-09-09T14:59:42.965Z,26.11
2022-09-09T15:02:15.285Z,26.08
2022-09-09T15:04:45.390Z,25.77
2022-09-09T15:07:14.812Z,25.83
2022-09-09T15:09:44.411Z,25.96
2022-09-09T15:12:14.234Z,25.81
2022-09-09T15:14:43.806Z,25.91
2022-09-09T15:17:14.305Z,25.78
2022-09-09T15:19:43.184Z,25.73
2022-09-09T15:22:12.542Z,25.40
2022-09-09T15:24:41.946Z,25.17
2022-09-09T15:27:11.370Z,25.21
2022-09-09T15:29:40.751Z,25.46
2022-09-09T15:32:10.096Z,25.15
2022-09-09T15:34:39.698Z,25.19
2022-09-09T15:37:14.206Z,25.15
2022-09-09T15:39:43.767Z,25.38
2022-09-09T15:42:13.239Z,25.45
2022-09-09T15:44:43.730Z,25.53
2022-09-09T15:47:14.449Z,25.66
2022-09-09T15:49:45.362Z,25.85
2022-09-09T15:52:14.781Z,25.50
2022-09-09T15:54:44.635Z,25.70
2022-09-09T15:57:15.410Z,25.48
2022-09-09T15:59:46.415Z,25.18
2022-09-09T16:02:16.194Z,25.16
2022-09-09T16:04:45.879Z,24.78
2022-09-09T16:07:15.295Z,24.65
2022-09-09T16:09:44.774Z,24.41
2022-09-09T16:12:15.615Z,24.42
2022-09-09T16:14:46.563Z,24.20
2022-09-09T16:17:16.359Z,23.98
2022-09-09T16:19:46.960Z,23.71
2022-09-09T16:22:16.794Z,23.70
2022-09-09T16:24:47.910Z,23.50
2022-09-09T16:27:17.285Z,23.60
2022-09-09T16:29:46.742Z,23.61
2022-09-09T16:32:16.152Z,23.50
2022-09-09T16:34:46.925Z,23.53
2022-09-09T16:37:16.294Z,23.27
2022-09-09T16:39:45.806Z,23.25
2022-09-09T16:42:14.186Z,23.16
2022-09-09T16:44:45.012Z,23.16
2022-09-09T16:47:14.454Z,23.16
2022-09-09T16:49:43.882Z,23.10
2022-09-09T16:52:12.211Z,23.03
2022-09-09T16:54:41.663Z,22.83
2022-09-09T16:57:11.318Z,22.64
2022-09-09T16:59:40.753Z,22.61
2022-09-09T17:02:12.525Z,22.48
2022-09-09T17:04:41.922Z,22.52
2022-09-09T17:07:11.557Z,22.42
2022-09-09T17:09:41.074Z,22.31
2022-09-09T17:12:11.551Z,22.08
2022-09-09T17:14:40.955Z,22.24
2022-09-09T17:17:30.636Z,22.23
2022-09-09T17:20:00.205Z,22.12
2022-09-09T17:22:30.065Z,22.03
2022-09-09T17:24:59.476Z,21.84
2022-09-09T17:27:28.899Z,21.70
2022-09-09T17:29:59.473Z,21.41
2022-09-09T17:32:29.911Z,21.55
2022-09-09T17:34:59.485Z,21.34
2022-09-09T17:37:29.444Z,21.33
2022-09-09T17:39:59.245Z,21.35
2022-09-09T17:42:29.230Z,21.39
2022-09-09T17:44:58.686Z,21.18
2022-09-09T17:47:27.070Z,21.02
2022-09-09T17:49:56.571Z,20.80
2022-09-09T17:52:25.289Z,20.83
2022-09-09T17:54:57.641Z,20.75
2022-09-09T17:57:26.939Z,20.63
2022-09-09T17:59:56.322Z,20.53
2022-09-09T18:05:10.207Z,20.68
2022-09-09T18:07:39.640Z,20.64
2022-09-09T18:10:09.605Z,20.63
2022-09-09T18:12:39.023Z,20.66
2022-09-09T18:15:09.033Z,20.63
2022-09-09T18:20:26.713Z,20.15
2022-09-09T18:22:55.101Z,20.37
2022-09-09T18:25:23.546Z,20.44
2022-09-09T18:27:53.639Z,20.29
2022-09-09T18:30:22.591Z,20.33
2022-09-09T18:32:53.097Z,20.31
2022-09-09T18:35:21.533Z,20.38
2022-09-09T18:37:50.734Z,20.48
2022-09-09T18:40:20.257Z,20.52
2022-09-09T18:42:49.266Z,20.59
2022-09-09T18:45:18.728Z,20.68
2022-09-09T18:47:49.220Z,20.69
2022-09-09T18:50:19.142Z,20.61
2022-09-09T18:52:49.492Z,20.57
2022-09-09T18:55:18.257Z,20.43
2022-09-09T18:57:48.081Z,20.42
2022-09-09T19:00:17.443Z,20.49
2022-09-09T19:02:53.067Z,20.24
2022-09-09T19:05:24.289Z,20.14
2022-09-09T19:07:53.048Z,20.24
2022-09-09T19:10:21.684Z,20.31
2022-09-09T19:12:50.365Z,20.41
2022-09-09T19:15:18.990Z,20.54
2022-09-09T19:17:47.571Z,20.66
2022-09-09T19:20:16.616Z,20.52
2022-09-09T19:22:45.354Z,20.45
2022-09-09T19:25:14.042Z,20.52
2022-09-09T19:27:43.347Z,20.65
2022-09-09T19:30:13.678Z,20.57
2022-09-09T19:32:53.179Z,20.57
2022-09-09T19:35:23.188Z,20.54
2022-09-09T19:37:51.727Z,20.56
2022-09-09T19:40:22.446Z,20.51
2022-09-09T19:42:53.639Z,20.71
2022-09-09T19:45:22.172Z,20.78
2022-09-09T19:47:51.479Z,20.80
2022-09-09T19:50:20.023Z,20.78
2022-09-09T19:52:48.575Z,20.65
2022-09-09T19:55:20.227Z,20.65
2022-09-09T19:57:49.574Z,20.72
2022-09-09T20:00:19.284Z,20.72
2022-09-09T20:03:15.298Z,20.78
2022-09-09T20:05:39.453Z,20.71
2022-09-09T20:08:08.023Z,20.72
2022-09-09T20:10:36.960Z,20.68
2022-09-09T20:13:05.676Z,20.79
2022-09-09T20:15:34.367Z,20.70
2022-09-09T20:18:04.740Z,20.65
2022-09-09T20:20:33.626Z,20.39
2022-09-09T20:23:02.962Z,20.42
2022-09-09T20:25:31.484Z,20.24
2022-09-09T20:28:00.858Z,20.10
2022-09-09T20:30:29.405Z,20.20
2022-09-09T20:32:57.913Z,20.07
2022-09-09T20:35:26.432Z,20.27
2022-09-09T20:37:55.147Z,20.14
2022-09-09T20:40:24.728Z,20.15
2022-09-09T20:42:53.228Z,20.02
2022-09-09T20:45:23.095Z,20.15
2022-09-09T20:47:51.726Z,19.98
2022-09-09T20:50:20.553Z,20.05
2022-09-09T20:52:49.185Z,19.95
2022-09-09T20:55:18.941Z,20.18
2022-09-09T20:57:48.066Z,20.11
2022-09-09T21:00:16.785Z,20.18
2022-09-09T21:02:46.109Z,20.02
2022-09-09T21:05:14.830Z,20.17
2022-09-09T21:07:44.209Z,20.24
2022-09-09T21:10:12.826Z,20.17
2022-09-09T21:12:41.363Z,20.21
2022-09-09T21:15:11.451Z,20.15
2022-09-09T21:17:40.399Z,20.31
2022-09-09T21:20:09.859Z,20.26
2022-09-09T21:22:38.438Z,20.26
2022-09-09T21:25:08.079Z,20.33
2022-09-09T21:27:36.614Z,20.27
2022-09-09T21:30:05.612Z,20.13
2022-09-09T21:32:34.149Z,20.07
2022-09-09T21:35:02.719Z,20.06
2022-09-09T21:37:32.051Z,19.92
2022-09-09T21:40:00.671Z,19.90
2022-09-09T21:42:29.637Z,20.08
2022-09-09T21:44:58.179Z,20.06
2022-09-09T21:47:26.732Z,20.00
2022-09-09T21:49:55.250Z,20.15
2022-09-09T21:52:24.468Z,20.06
2022-09-09T21:54:52.972Z,20.17
2022-09-09T21:57:24.897Z,20.17
2022-09-09T21:59:53.642Z,20.10
2022-09-09T22:02:22.379Z,20.04
2022-09-09T22:04:52.241Z,20.06
2022-09-09T22:07:21.065Z,20.07
2022-09-09T22:09:49.567Z,20.02
2022-09-09T22:12:18.067Z,19.93
2022-09-09T22:14:46.496Z,19.94
2022-09-09T22:17:15.845Z,20.02
2022-09-09T22:19:44.241Z,19.99
2022-09-09T22:22:13.044Z,20.06
2022-09-09T22:24:41.685Z,19.98
2022-09-09T22:27:11.593Z,20.02
2022-09-09T22:29:41.012Z,20.04
2022-09-09T22:32:10.668Z,20.02
2022-09-09T22:34:39.990Z,20.08
2022-09-09T22:37:08.638Z,19.87
2022-09-09T22:39:37.175Z,19.78
2022-09-09T22:42:07.658Z,19.63
2022-09-09T22:44:36.175Z,19.62
2022-09-09T22:47:04.982Z,19.61
2022-09-09T22:49:33.395Z,19.88
2022-09-09T22:52:02.446Z,19.82
2022-09-09T22:54:30.950Z,19.87
2022-09-09T22:56:59.466Z,19.85
2022-09-09T22:59:28.279Z,19.81
2022-09-09T23:01:59.042Z,19.80
2022-09-09T23:04:27.682Z,19.82
2022-09-09T23:06:56.052Z,19.77
2022-09-09T23:09:24.408Z,19.75
2022-09-09T23:11:54.006Z,19.72
2022-09-09T23:14:22.458Z,19.81
2022-09-09T23:16:52.716Z,19.76
2022-09-09T23:19:22.005Z,19.89
2022-09-09T23:21:50.956Z,19.83
2022-09-09T23:24:19.373Z,19.77
2022-09-09T23:26:47.967Z,19.72
2022-09-09T23:29:16.986Z,19.80
2022-09-09T23:31:46.710Z,19.72
2022-09-09T23:34:15.260Z,19.58
2022-09-09T23:36:43.811Z,19.77
2022-09-09T23:39:13.447Z,19.52
2022-09-09T23:41:42.070Z,19.65
2022-09-09T23:44:12.874Z,19.65
2022-09-09T23:46:41.497Z,19.72
2022-09-09T23:49:10.494Z,19.71
2022-09-09T23:51:39.231Z,19.69
2022-09-09T23:54:09.952Z,19.79
2022-09-09T23:56:42.573Z,19.65
2022-09-09T23:59:11.275Z,19.52
